sensor_id;sensor_type;location;lat;lon;timestamp;P1;durP1;ratioP1;P2;durP2;ratioP2
68944;SDS011;55984;48.790;8.990;2023-07-02T00:00:11;11.43;;;7.53;;
68944;SDS011;55984;48.790;8.990;2023-07-02T00:02:37;14.03;;;8.30;;
68944;SDS011;55984;48.790;8.990;2023-07-02T00:05:03;13.23;;;7.40;;
68944;SDS011;55984;48.790;8.990;2023-07-02T00:07:30;13.53;;;8.50;;
68944;SDS011;55984;48.790;8.990;2023-07-02T00:09:56;14.00;;;8.10;;
68944;SDS011;55984;48.790;8.990;2023-07-02T00:12:22;16.20;;;9.30;;
68944;SDS011;55984;48.790;8.990;2023-07-02T00:14:48;15.73;;;8.77;;
68944;SDS011;55984;48.790;8.990;2023-07-02T00:17:16;15.73;;;8.67;;
68944;SDS011;55984;48.790;8.990;2023-07-02T00:19:42;15.10;;;8.90;;
68944;SDS011;55984;48.790;8.990;2023-07-02T00:22:08;15.67;;;9.17;;
68944;SDS011;55984;48.790;8.990;2023-07-02T00:24:34;13.00;;;8.50;;
68944;SDS011;55984;48.790;8.990;2023-07-02T00:27:01;17.20;;;9.13;;
68944;SDS011;55984;48.790;8.990;2023-07-02T00:29:26;13.93;;;8.30;;
68944;SDS011;55984;48.790;8.990;2023-07-02T00:31:52;15.83;;;8.00;;
68944;SDS011;55984;48.790;8.990;2023-07-02T00:34:18;14.17;;;8.37;;
68944;SDS011;55984;48.790;8.990;2023-07-02T00:36:44;12.73;;;7.73;;
68944;SDS011;55984;48.790;8.990;2023-07-02T00:39:11;14.10;;;7.60;;
68944;SDS011;55984;48.790;8.990;2023-07-02T07:25:00;26.30;;;10.60;;
68944;SDS011;55984;48.790;8.990;2023-07-02T07:27:26;26.87;;;11.67;;
68944;SDS011;55984;48.790;8.990;2023-07-02T07:29:52;25.40;;;12.13;;
68944;SDS011;55984;48.790;8.990;2023-07-02T07:32:20;25.70;;;11.87;;
68944;SDS011;55984;48.790;8.990;2023-07-02T07:34:46;27.23;;;12.63;;
68944;SDS011;55984;48.790;8.990;2023-07-02T07:37:12;25.43;;;11.63;;
68944;SDS011;55984;48.790;8.990;2023-07-02T07:39:38;28.63;;;12.50;;
68944;SDS011;55984;48.790;8.990;2023-07-02T07:42:06;26.37;;;11.90;;
68944;SDS011;55984;48.790;8.990;2023-07-02T07:44:32;38.27;;;12.70;;
68944;SDS011;55984;48.790;8.990;2023-07-02T07:46:59;26.33;;;12.30;;
68944;SDS011;55984;48.790;8.990;2023-07-02T07:49:25;33.53;;;12.90;;
68944;SDS011;55984;48.790;8.990;2023-07-02T07:51:51;34.30;;;13.70;;
68944;SDS011;55984;48.790;8.990;2023-07-02T07:54:17;29.10;;;12.67;;
68944;SDS011;55984;48.790;8.990;2023-07-02T07:56:46;28.03;;;11.77;;
68944;SDS011;55984;48.790;8.990;2023-07-02T07:59:12;24.60;;;12.00;;
68944;SDS011;55984;48.790;8.990;2023-07-02T08:01:39;30.87;;;12.13;;
68944;SDS011;55984;48.790;8.990;2023-07-02T08:04:05;26.07;;;11.77;;
68944;SDS011;55984;48.790;8.990;2023-07-02T08:06:31;27.20;;;11.30;;
68944;SDS011;55984;48.790;8.990;2023-07-02T08:08:57;29.80;;;12.10;;
68944;SDS011;55984;48.790;8.990;2023-07-02T08:11:23;28.23;;;11.93;;
68944;SDS011;55984;48.790;8.990;2023-07-02T08:13:49;25.33;;;11.93;;
68944;SDS011;55984;48.790;8.990;2023-07-02T08:16:15;24.23;;;11.77;;
68944;SDS011;55984;48.790;8.990;2023-07-02T08:18:41;29.27;;;13.03;;
68944;SDS011;55984;48.790;8.990;2023-07-02T08:21:07;24.47;;;12.00;;
68944;SDS011;55984;48.790;8.990;2023-07-02T08:23:33;27.47;;;12.50;;
68944;SDS011;55984;48.790;8.990;2023-07-02T08:25:59;26.93;;;11.90;;
68944;SDS011;55984;48.790;8.990;2023-07-02T08:28:25;27.30;;;12.20;;
68944;SDS011;55984;48.790;8.990;2023-07-02T08:30:51;27.03;;;12.07;;
68944;SDS011;55984;48.790;8.990;2023-07-02T08:33:17;25.70;;;12.10;;
68944;SDS011;55984;48.790;8.990;2023-07-02T08:35:43;23.37;;;12.40;;
68944;SDS011;55984;48.790;8.990;2023-07-02T08:38:08;23.00;;;11.53;;
68944;SDS011;55984;48.790;8.990;2023-07-02T08:40:34;26.50;;;11.83;;
68944;SDS011;55984;48.790;8.990;2023-07-02T08:43:00;26.27;;;11.57;;
68944;SDS011;55984;48.790;8.990;2023-07-02T08:45:27;25.30;;;11.60;;
68944;SDS011;55984;48.790;8.990;2023-07-02T08:47:55;26.80;;;10.47;;
68944;SDS011;55984;48.790;8.990;2023-07-02T08:50:23;25.37;;;11.80;;
68944;SDS011;55984;48.790;8.990;2023-07-02T08:52:49;26.13;;;12.33;;
68944;SDS011;55984;48.790;8.990;2023-07-02T08:55:15;27.27;;;11.47;;
68944;SDS011;55984;48.790;8.990;2023-07-02T08:57:47;23.97;;;11.20;;
68944;SDS011;55984;48.790;8.990;2023-07-02T09:00:15;26.93;;;11.60;;
68944;SDS011;55984;48.790;8.990;2023-07-02T09:02:41;23.30;;;11.17;;
68944;SDS011;55984;48.790;8.990;2023-07-02T09:05:07;23.47;;;11.80;;
68944;SDS011;55984;48.790;8.990;2023-07-02T09:07:45;27.97;;;12.60;;
68944;SDS011;55984;48.790;8.990;2023-07-02T09:10:12;27.07;;;12.80;;
68944;SDS011;55984;48.790;8.990;2023-07-02T09:13:07;24.33;;;11.53;;
68944;SDS011;55984;48.790;8.990;2023-07-02T09:18:15;25.83;;;12.13;;
68944;SDS011;55984;48.790;8.990;2023-07-02T09:20:43;27.40;;;11.80;;
68944;SDS011;55984;48.790;8.990;2023-07-02T09:23:09;27.17;;;11.90;;
68944;SDS011;55984;48.790;8.990;2023-07-02T09:25:36;27.83;;;11.70;;
68944;SDS011;55984;48.790;8.990;2023-07-02T09:31:16;25.07;;;11.60;;
68944;SDS011;55984;48.790;8.990;2023-07-02T09:36:37;21.60;;;11.20;;
68944;SDS011;55984;48.790;8.990;2023-07-02T09:39:18;27.43;;;11.60;;
68944;SDS011;55984;48.790;8.990;2023-07-02T09:41:49;23.20;;;11.47;;
68944;SDS011;55984;48.790;8.990;2023-07-02T09:44:15;23.97;;;11.30;;
68944;SDS011;55984;48.790;8.990;2023-07-02T09:46:45;22.20;;;10.93;;
68944;SDS011;55984;48.790;8.990;2023-07-02T09:49:19;21.90;;;12.00;;
68944;SDS011;55984;48.790;8.990;2023-07-02T09:51:47;24.40;;;13.73;;
68944;SDS011;55984;48.790;8.990;2023-07-02T09:54:13;24.13;;;12.00;;
68944;SDS011;55984;48.790;8.990;2023-07-02T09:56:39;24.80;;;12.50;;
68944;SDS011;55984;48.790;8.990;2023-07-02T09:59:05;28.93;;;12.93;;
68944;SDS011;55984;48.790;8.990;2023-07-02T10:01:33;27.83;;;13.63;;
68944;SDS011;55984;48.790;8.990;2023-07-02T10:04:09;27.83;;;12.70;;
68944;SDS011;55984;48.790;8.990;2023-07-02T10:06:46;26.07;;;12.03;;
68944;SDS011;55984;48.790;8.990;2023-07-02T10:09:34;26.50;;;12.13;;
68944;SDS011;55984;48.790;8.990;2023-07-02T10:12:18;24.70;;;12.23;;
68944;SDS011;55984;48.790;8.990;2023-07-02T10:14:48;26.53;;;13.47;;
68944;SDS011;55984;48.790;8.990;2023-07-02T10:19:54;26.17;;;11.50;;
68944;SDS011;55984;48.790;8.990;2023-07-02T10:22:21;25.77;;;12.77;;
68944;SDS011;55984;48.790;8.990;2023-07-02T10:24:54;26.50;;;12.40;;
68944;SDS011;55984;48.790;8.990;2023-07-02T10:27:41;26.50;;;12.40;;
68944;SDS011;55984;48.790;8.990;2023-07-02T10:30:08;23.40;;;11.70;;
68944;SDS011;55984;48.790;8.990;2023-07-02T10:32:35;23.97;;;12.87;;
68944;SDS011;55984;48.790;8.990;2023-07-02T10:35:15;25.80;;;12.77;;
68944;SDS011;55984;48.790;8.990;2023-07-02T10:37:43;24.83;;;12.53;;
68944;SDS011;55984;48.790;8.990;2023-07-02T10:40:09;26.30;;;13.83;;
68944;SDS011;55984;48.790;8.990;2023-07-02T10:42:46;18.93;;;11.60;;
68944;SDS011;55984;48.790;8.990;2023-07-02T10:45:13;24.77;;;11.67;;
68944;SDS011;55984;48.790;8.990;2023-07-02T10:47:39;25.30;;;13.10;;
68944;SDS011;55984;48.790;8.990;2023-07-02T10:52:41;28.37;;;15.23;;
68944;SDS011;55984;48.790;8.990;2023-07-02T10:55:07;23.40;;;12.53;;
68944;SDS011;55984;48.790;8.990;2023-07-02T10:57:33;23.93;;;11.80;;
68944;SDS011;55984;48.790;8.990;2023-07-02T11:00:05;21.60;;;12.47;;
68944;SDS011;55984;48.790;8.990;2023-07-02T11:02:35;23.57;;;11.93;;
68944;SDS011;55984;48.790;8.990;2023-07-02T11:05:04;22.70;;;11.53;;
68944;SDS011;55984;48.790;8.990;2023-07-02T11:07:32;22.00;;;12.23;;
68944;SDS011;55984;48.790;8.990;2023-07-02T11:09:58;24.83;;;11.73;;
68944;SDS011;55984;48.790;8.990;2023-07-02T11:12:28;27.70;;;12.80;;
68944;SDS011;55984;48.790;8.990;2023-07-02T11:18:10;20.37;;;11.40;;
68944;SDS011;55984;48.790;8.990;2023-07-02T11:20:37;22.03;;;12.37;;
68944;SDS011;55984;48.790;8.990;2023-07-02T11:23:04;25.17;;;12.40;;
68944;SDS011;55984;48.790;8.990;2023-07-02T11:28:03;25.10;;;12.10;;
68944;SDS011;55984;48.790;8.990;2023-07-02T11:30:29;23.13;;;12.20;;
68944;SDS011;55984;48.790;8.990;2023-07-02T11:32:55;26.30;;;12.97;;
68944;SDS011;55984;48.790;8.990;2023-07-02T11:35:22;21.60;;;12.43;;
68944;SDS011;55984;48.790;8.990;2023-07-02T11:37:59;24.53;;;12.60;;
68944;SDS011;55984;48.790;8.990;2023-07-02T11:40:26;24.20;;;12.03;;
68944;SDS011;55984;48.790;8.990;2023-07-02T11:42:52;26.73;;;12.70;;
68944;SDS011;55984;48.790;8.990;2023-07-02T11:45:19;23.73;;;12.27;;
68944;SDS011;55984;48.790;8.990;2023-07-02T11:47:45;22.80;;;12.20;;
68944;SDS011;55984;48.790;8.990;2023-07-02T11:50:11;25.80;;;12.63;;
68944;SDS011;55984;48.790;8.990;2023-07-02T11:52:37;23.20;;;12.40;;
68944;SDS011;55984;48.790;8.990;2023-07-02T11:55:03;24.13;;;12.83;;
68944;SDS011;55984;48.790;8.990;2023-07-02T11:57:29;22.33;;;12.00;;
68944;SDS011;55984;48.790;8.990;2023-07-02T11:59:55;25.13;;;12.37;;
68944;SDS011;55984;48.790;8.990;2023-07-02T12:02:21;23.67;;;12.37;;
68944;SDS011;55984;48.790;8.990;2023-07-02T12:04:47;23.20;;;13.17;;
68944;SDS011;55984;48.790;8.990;2023-07-02T12:09:47;23.30;;;12.47;;
68944;SDS011;55984;48.790;8.990;2023-07-02T12:12:13;24.87;;;12.30;;
68944;SDS011;55984;48.790;8.990;2023-07-02T12:14:38;23.40;;;12.60;;
68944;SDS011;55984;48.790;8.990;2023-07-02T12:17:08;23.87;;;12.87;;
68944;SDS011;55984;48.790;8.990;2023-07-02T12:19:34;25.37;;;13.20;;
68944;SDS011;55984;48.790;8.990;2023-07-02T12:22:00;26.03;;;12.90;;
68944;SDS011;55984;48.790;8.990;2023-07-02T12:24:26;22.77;;;13.13;;
68944;SDS011;55984;48.790;8.990;2023-07-02T12:26:52;25.80;;;12.57;;
68944;SDS011;55984;48.790;8.990;2023-07-02T12:29:20;24.07;;;12.10;;
68944;SDS011;55984;48.790;8.990;2023-07-02T12:31:46;21.00;;;12.37;;
68944;SDS011;55984;48.790;8.990;2023-07-02T12:34:12;24.60;;;13.03;;
68944;SDS011;55984;48.790;8.990;2023-07-02T12:36:38;22.37;;;12.33;;
68944;SDS011;55984;48.790;8.990;2023-07-02T12:39:04;25.10;;;12.50;;
68944;SDS011;55984;48.790;8.990;2023-07-02T12:41:30;32.47;;;13.23;;
68944;SDS011;55984;48.790;8.990;2023-07-02T12:43:56;25.80;;;13.17;;
68944;SDS011;55984;48.790;8.990;2023-07-02T12:46:22;22.87;;;13.60;;
68944;SDS011;55984;48.790;8.990;2023-07-02T12:48:48;22.00;;;12.40;;
68944;SDS011;55984;48.790;8.990;2023-07-02T12:51:14;27.50;;;12.90;;
68944;SDS011;55984;48.790;8.990;2023-07-02T12:53:39;21.73;;;12.80;;
68944;SDS011;55984;48.790;8.990;2023-07-02T12:56:06;24.00;;;12.77;;
68944;SDS011;55984;48.790;8.990;2023-07-02T12:58:32;24.87;;;12.60;;
68944;SDS011;55984;48.790;8.990;2023-07-02T13:00:59;24.30;;;12.63;;
68944;SDS011;55984;48.790;8.990;2023-07-02T13:03:25;28.93;;;13.53;;
68944;SDS011;55984;48.790;8.990;2023-07-02T13:05:51;22.70;;;12.37;;
68944;SDS011;55984;48.790;8.990;2023-07-02T13:08:17;23.80;;;13.30;;
68944;SDS011;55984;48.790;8.990;2023-07-02T13:10:43;23.70;;;12.60;;
68944;SDS011;55984;48.790;8.990;2023-07-02T13:13:09;23.93;;;12.73;;
68944;SDS011;55984;48.790;8.990;2023-07-02T13:15:35;25.00;;;13.10;;
68944;SDS011;55984;48.790;8.990;2023-07-02T13:18:01;25.20;;;12.80;;
68944;SDS011;55984;48.790;8.990;2023-07-02T13:20:27;27.17;;;13.23;;
68944;SDS011;55984;48.790;8.990;2023-07-02T13:22:53;23.37;;;13.00;;
68944;SDS011;55984;48.790;8.990;2023-07-02T13:25:19;24.83;;;12.83;;
68944;SDS011;55984;48.790;8.990;2023-07-02T13:27:45;25.60;;;12.90;;
68944;SDS011;55984;48.790;8.990;2023-07-02T13:30:10;24.63;;;13.00;;
68944;SDS011;55984;48.790;8.990;2023-07-02T13:32:36;23.50;;;12.47;;
68944;SDS011;55984;48.790;8.990;2023-07-02T13:35:02;23.00;;;12.47;;
68944;SDS011;55984;48.790;8.990;2023-07-02T13:37:28;24.40;;;13.60;;
68944;SDS011;55984;48.790;8.990;2023-07-02T13:39:54;21.73;;;13.33;;
68944;SDS011;55984;48.790;8.990;2023-07-02T13:42:20;22.40;;;13.10;;
68944;SDS011;55984;48.790;8.990;2023-07-02T13:44:46;22.83;;;13.40;;
68944;SDS011;55984;48.790;8.990;2023-07-02T13:47:12;26.20;;;13.37;;
68944;SDS011;55984;48.790;8.990;2023-07-02T13:49:38;25.77;;;12.50;;
68944;SDS011;55984;48.790;8.990;2023-07-02T13:52:04;21.23;;;12.47;;
68944;SDS011;55984;48.790;8.990;2023-07-02T13:54:30;21.37;;;12.17;;
68944;SDS011;55984;48.790;8.990;2023-07-02T13:56:58;22.80;;;13.37;;
68944;SDS011;55984;48.790;8.990;2023-07-02T13:59:24;22.33;;;13.17;;
68944;SDS011;55984;48.790;8.990;2023-07-02T14:01:50;22.93;;;12.80;;
68944;SDS011;55984;48.790;8.990;2023-07-02T14:04:16;22.43;;;12.10;;
68944;SDS011;55984;48.790;8.990;2023-07-02T14:06:43;22.47;;;12.37;;
68944;SDS011;55984;48.790;8.990;2023-07-02T14:09:09;20.97;;;12.50;;
68944;SDS011;55984;48.790;8.990;2023-07-02T14:11:37;20.80;;;12.90;;
68944;SDS011;55984;48.790;8.990;2023-07-02T14:14:04;22.97;;;12.67;;
68944;SDS011;55984;48.790;8.990;2023-07-02T14:16:31;21.83;;;11.90;;
68944;SDS011;55984;48.790;8.990;2023-07-02T14:18:57;24.10;;;12.97;;
68944;SDS011;55984;48.790;8.990;2023-07-02T14:21:23;22.40;;;12.00;;
68944;SDS011;55984;48.790;8.990;2023-07-02T14:23:51;23.63;;;12.53;;
68944;SDS011;55984;48.790;8.990;2023-07-02T14:26:17;20.10;;;12.40;;
68944;SDS011;55984;48.790;8.990;2023-07-02T14:28:43;22.40;;;12.80;;
68944;SDS011;55984;48.790;8.990;2023-07-02T14:31:08;25.07;;;13.37;;
68944;SDS011;55984;48.790;8.990;2023-07-02T14:33:36;26.93;;;13.90;;
68944;SDS011;55984;48.790;8.990;2023-07-02T14:36:03;22.20;;;12.73;;
68944;SDS011;55984;48.790;8.990;2023-07-02T14:38:30;25.10;;;13.40;;
68944;SDS011;55984;48.790;8.990;2023-07-02T14:40:56;23.33;;;12.77;;
68944;SDS011;55984;48.790;8.990;2023-07-02T14:43:22;24.63;;;12.90;;
68944;SDS011;55984;48.790;8.990;2023-07-02T14:45:51;25.17;;;13.27;;
68944;SDS011;55984;48.790;8.990;2023-07-02T14:48:18;26.60;;;12.70;;
68944;SDS011;55984;48.790;8.990;2023-07-02T14:50:45;26.03;;;13.57;;
68944;SDS011;55984;48.790;8.990;2023-07-02T14:53:15;25.70;;;13.20;;
68944;SDS011;55984;48.790;8.990;2023-07-02T14:55:41;26.30;;;13.23;;
68944;SDS011;55984;48.790;8.990;2023-07-02T14:58:10;24.30;;;13.53;;
68944;SDS011;55984;48.790;8.990;2023-07-02T15:00:46;25.23;;;13.23;;
68944;SDS011;55984;48.790;8.990;2023-07-02T15:03:13;25.30;;;13.20;;
68944;SDS011;55984;48.790;8.990;2023-07-02T15:05:40;24.50;;;13.07;;
68944;SDS011;55984;48.790;8.990;2023-07-02T15:08:07;24.90;;;13.50;;
68944;SDS011;55984;48.790;8.990;2023-07-02T15:10:34;25.43;;;13.20;;
68944;SDS011;55984;48.790;8.990;2023-07-02T15:13:04;26.40;;;12.90;;
68944;SDS011;55984;48.790;8.990;2023-07-02T15:15:31;23.23;;;12.60;;
68944;SDS011;55984;48.790;8.990;2023-07-02T15:17:56;26.83;;;13.77;;
68944;SDS011;55984;48.790;8.990;2023-07-02T15:20:22;24.87;;;12.60;;
68944;SDS011;55984;48.790;8.990;2023-07-02T15:22:55;22.23;;;12.60;;
68944;SDS011;55984;48.790;8.990;2023-07-02T15:25:21;25.20;;;13.07;;
68944;SDS011;55984;48.790;8.990;2023-07-02T15:27:47;23.87;;;13.13;;
68944;SDS011;55984;48.790;8.990;2023-07-02T15:30:14;26.60;;;13.10;;
68944;SDS011;55984;48.790;8.990;2023-07-02T15:32:40;26.00;;;13.40;;
68944;SDS011;55984;48.790;8.990;2023-07-02T15:35:06;30.03;;;12.90;;
68944;SDS011;55984;48.790;8.990;2023-07-02T15:37:32;28.53;;;12.73;;
68944;SDS011;55984;48.790;8.990;2023-07-02T15:40:04;24.10;;;13.30;;
68944;SDS011;55984;48.790;8.990;2023-07-02T15:42:31;26.50;;;13.07;;
68944;SDS011;55984;48.790;8.990;2023-07-02T15:44:59;22.87;;;12.77;;
68944;SDS011;55984;48.790;8.990;2023-07-02T15:47:25;22.67;;;12.30;;
68944;SDS011;55984;48.790;8.990;2023-07-02T15:49:51;26.43;;;12.87;;
68944;SDS011;55984;48.790;8.990;2023-07-02T15:52:17;25.23;;;12.17;;
68944;SDS011;55984;48.790;8.990;2023-07-02T15:54:44;26.10;;;12.63;;
68944;SDS011;55984;48.790;8.990;2023-07-02T15:57:10;28.77;;;12.50;;
68944;SDS011;55984;48.790;8.990;2023-07-02T15:59:36;25.60;;;12.40;;
68944;SDS011;55984;48.790;8.990;2023-07-02T16:02:02;23.47;;;13.27;;
68944;SDS011;55984;48.790;8.990;2023-07-02T16:04:29;24.40;;;12.30;;
68944;SDS011;55984;48.790;8.990;2023-07-02T16:06:55;23.70;;;12.60;;
68944;SDS011;55984;48.790;8.990;2023-07-02T16:09:21;23.33;;;12.33;;
68944;SDS011;55984;48.790;8.990;2023-07-02T16:11:46;23.30;;;12.23;;
68944;SDS011;55984;48.790;8.990;2023-07-02T16:14:13;23.20;;;12.70;;
68944;SDS011;55984;48.790;8.990;2023-07-02T16:16:43;25.90;;;12.93;;
68944;SDS011;55984;48.790;8.990;2023-07-02T16:19:10;25.00;;;12.80;;
68944;SDS011;55984;48.790;8.990;2023-07-02T16:21:40;24.87;;;12.80;;
68944;SDS011;55984;48.790;8.990;2023-07-02T16:24:17;24.30;;;11.83;;
68944;SDS011;55984;48.790;8.990;2023-07-02T16:26:48;26.57;;;12.97;;
68944;SDS011;55984;48.790;8.990;2023-07-02T16:29:14;27.07;;;12.10;;
68944;SDS011;55984;48.790;8.990;2023-07-02T16:31:47;23.50;;;12.30;;
68944;SDS011;55984;48.790;8.990;2023-07-02T16:34:17;26.63;;;13.30;;
68944;SDS011;55984;48.790;8.990;2023-07-02T16:36:43;25.40;;;12.33;;
68944;SDS011;55984;48.790;8.990;2023-07-02T16:39:11;26.97;;;12.60;;
68944;SDS011;55984;48.790;8.990;2023-07-02T16:41:39;25.83;;;12.20;;
68944;SDS011;55984;48.790;8.990;2023-07-02T16:46:51;24.53;;;12.90;;
68944;SDS011;55984;48.790;8.990;2023-07-02T16:49:22;22.53;;;11.70;;
68944;SDS011;55984;48.790;8.990;2023-07-02T16:51:52;25.03;;;12.63;;
68944;SDS011;55984;48.790;8.990;2023-07-02T16:54:20;25.53;;;13.10;;
68944;SDS011;55984;48.790;8.990;2023-07-02T16:56:50;23.87;;;12.60;;
68944;SDS011;55984;48.790;8.990;2023-07-02T16:59:18;25.33;;;13.17;;
68944;SDS011;55984;48.790;8.990;2023-07-02T17:01:45;27.67;;;13.23;;
68944;SDS011;55984;48.790;8.990;2023-07-02T17:04:13;23.57;;;12.23;;
68944;SDS011;55984;48.790;8.990;2023-07-02T17:06:43;25.00;;;12.40;;
68944;SDS011;55984;48.790;8.990;2023-07-02T17:09:27;23.70;;;12.10;;
68944;SDS011;55984;48.790;8.990;2023-07-02T17:11:58;23.00;;;12.77;;
68944;SDS011;55984;48.790;8.990;2023-07-02T17:14:27;25.83;;;12.17;;
68944;SDS011;55984;48.790;8.990;2023-07-02T17:16:57;24.97;;;12.63;;
68944;SDS011;55984;48.790;8.990;2023-07-02T17:19:30;24.87;;;12.20;;
68944;SDS011;55984;48.790;8.990;2023-07-02T17:22:02;26.60;;;12.10;;
68944;SDS011;55984;48.790;8.990;2023-07-02T17:24:33;21.23;;;11.27;;
68944;SDS011;55984;48.790;8.990;2023-07-02T17:27:11;27.07;;;12.47;;
68944;SDS011;55984;48.790;8.990;2023-07-02T17:29:39;28.00;;;13.30;;
68944;SDS011;55984;48.790;8.990;2023-07-02T17:32:07;24.37;;;12.27;;
68944;SDS011;55984;48.790;8.990;2023-07-02T17:34:35;24.80;;;12.37;;
68944;SDS011;55984;48.790;8.990;2023-07-02T17:37:04;25.40;;;13.17;;
68944;SDS011;55984;48.790;8.990;2023-07-02T17:39:33;28.50;;;13.70;;
68944;SDS011;55984;48.790;8.990;2023-07-02T17:41:59;27.00;;;12.90;;
68944;SDS011;55984;48.790;8.990;2023-07-02T17:44:27;27.40;;;12.30;;
68944;SDS011;55984;48.790;8.990;2023-07-02T17:46:55;26.90;;;12.93;;
68944;SDS011;55984;48.790;8.990;2023-07-02T17:49:26;27.93;;;11.80;;
68944;SDS011;55984;48.790;8.990;2023-07-02T17:51:53;33.20;;;14.20;;
68944;SDS011;55984;48.790;8.990;2023-07-02T17:54:20;33.03;;;13.40;;
68944;SDS011;55984;48.790;8.990;2023-07-02T17:56:47;30.97;;;14.00;;
68944;SDS011;55984;48.790;8.990;2023-07-02T17:59:18;33.70;;;13.73;;
68944;SDS011;55984;48.790;8.990;2023-07-02T18:01:45;31.60;;;12.70;;
68944;SDS011;55984;48.790;8.990;2023-07-02T18:04:15;30.83;;;12.90;;
68944;SDS011;55984;48.790;8.990;2023-07-02T18:06:42;29.83;;;12.93;;
68944;SDS011;55984;48.790;8.990;2023-07-02T18:09:09;35.37;;;15.63;;
68944;SDS011;55984;48.790;8.990;2023-07-02T18:11:35;29.27;;;12.10;;
68944;SDS011;55984;48.790;8.990;2023-07-02T18:14:03;26.03;;;12.00;;
68944;SDS011;55984;48.790;8.990;2023-07-02T18:16:30;31.30;;;13.03;;
68944;SDS011;55984;48.790;8.990;2023-07-02T18:18:57;26.97;;;12.53;;
68944;SDS011;55984;48.790;8.990;2023-07-02T18:21:23;29.40;;;12.90;;
68944;SDS011;55984;48.790;8.990;2023-07-02T18:23:53;29.93;;;12.33;;
68944;SDS011;55984;48.790;8.990;2023-07-02T18:26:25;31.43;;;12.63;;
68944;SDS011;55984;48.790;8.990;2023-07-02T18:28:51;35.93;;;13.83;;
68944;SDS011;55984;48.790;8.990;2023-07-02T18:31:17;31.23;;;12.50;;
68944;SDS011;55984;48.790;8.990;2023-07-02T18:33:47;36.07;;;13.43;;
68944;SDS011;55984;48.790;8.990;2023-07-02T18:36:14;29.33;;;12.60;;
68944;SDS011;55984;48.790;8.990;2023-07-02T18:38:41;30.30;;;12.73;;
68944;SDS011;55984;48.790;8.990;2023-07-02T18:41:08;27.43;;;12.27;;
68944;SDS011;55984;48.790;8.990;2023-07-02T18:43:43;31.80;;;12.47;;
68944;SDS011;55984;48.790;8.990;2023-07-02T18:46:10;35.53;;;13.47;;
68944;SDS011;55984;48.790;8.990;2023-07-02T18:48:36;32.23;;;13.27;;
68944;SDS011;55984;48.790;8.990;2023-07-02T18:51:03;29.80;;;13.27;;
68944;SDS011;55984;48.790;8.990;2023-07-02T18:53:32;30.70;;;12.93;;
68944;SDS011;55984;48.790;8.990;2023-07-02T18:56:03;24.93;;;12.10;;
68944;SDS011;55984;48.790;8.990;2023-07-02T18:58:32;28.50;;;12.73;;
68944;SDS011;55984;48.790;8.990;2023-07-02T19:01:00;28.60;;;12.17;;
68944;SDS011;55984;48.790;8.990;2023-07-02T19:03:32;28.37;;;11.97;;
68944;SDS011;55984;48.790;8.990;2023-07-02T19:06:03;33.97;;;12.50;;
68944;SDS011;55984;48.790;8.990;2023-07-02T19:08:34;29.60;;;12.30;;
68944;SDS011;55984;48.790;8.990;2023-07-02T19:11:02;32.43;;;13.17;;
68944;SDS011;55984;48.790;8.990;2023-07-02T19:13:29;30.43;;;12.40;;
68944;SDS011;55984;48.790;8.990;2023-07-02T19:15:56;31.27;;;12.40;;
68944;SDS011;55984;48.790;8.990;2023-07-02T19:18:22;32.50;;;14.17;;
68944;SDS011;55984;48.790;8.990;2023-07-02T19:20:51;33.80;;;12.47;;
68944;SDS011;55984;48.790;8.990;2023-07-02T19:23:19;33.80;;;12.90;;
68944;SDS011;55984;48.790;8.990;2023-07-02T19:25:52;25.10;;;12.70;;
68944;SDS011;55984;48.790;8.990;2023-07-02T19:28:22;30.67;;;12.27;;
68944;SDS011;55984;48.790;8.990;2023-07-02T19:31:03;28.73;;;11.83;;
68944;SDS011;55984;48.790;8.990;2023-07-02T19:33:30;32.50;;;12.87;;
68944;SDS011;55984;48.790;8.990;2023-07-02T19:35:56;33.80;;;13.07;;
68944;SDS011;55984;48.790;8.990;2023-07-02T19:38:23;29.53;;;12.47;;
68944;SDS011;55984;48.790;8.990;2023-07-02T19:40:54;32.90;;;12.03;;
68944;SDS011;55984;48.790;8.990;2023-07-02T19:43:26;33.37;;;14.27;;
68944;SDS011;55984;48.790;8.990;2023-07-02T19:45:56;38.57;;;13.50;;
68944;SDS011;55984;48.790;8.990;2023-07-02T19:48:28;34.17;;;13.07;;
68944;SDS011;55984;48.790;8.990;2023-07-02T19:51:00;32.93;;;12.83;;
68944;SDS011;55984;48.790;8.990;2023-07-02T19:53:31;29.20;;;13.23;;
68944;SDS011;55984;48.790;8.990;2023-07-02T19:56:07;29.70;;;12.70;;
68944;SDS011;55984;48.790;8.990;2023-07-02T19:58:37;31.37;;;12.80;;
68944;SDS011;55984;48.790;8.990;2023-07-02T20:01:09;35.67;;;12.80;;
68944;SDS011;55984;48.790;8.990;2023-07-02T20:03:37;34.67;;;13.40;;
68944;SDS011;55984;48.790;8.990;2023-07-02T20:06:04;31.50;;;12.60;;
68944;SDS011;55984;48.790;8.990;2023-07-02T20:08:30;38.40;;;13.40;;
68944;SDS011;55984;48.790;8.990;2023-07-02T20:13:44;34.13;;;13.50;;
68944;SDS011;55984;48.790;8.990;2023-07-02T20:16:17;39.37;;;13.33;;
68944;SDS011;55984;48.790;8.990;2023-07-02T20:18:44;33.40;;;13.43;;
68944;SDS011;55984;48.790;8.990;2023-07-02T20:21:16;33.93;;;13.13;;
68944;SDS011;55984;48.790;8.990;2023-07-02T20:23:44;29.97;;;12.10;;
68944;SDS011;55984;48.790;8.990;2023-07-02T20:26:32;35.17;;;13.67;;
68944;SDS011;55984;48.790;8.990;2023-07-02T20:29:00;38.20;;;14.20;;
68944;SDS011;55984;48.790;8.990;2023-07-02T20:31:31;28.80;;;12.60;;
68944;SDS011;55984;48.790;8.990;2023-07-02T20:33:57;32.47;;;12.87;;
68944;SDS011;55984;48.790;8.990;2023-07-02T20:36:26;34.80;;;12.50;;
68944;SDS011;55984;48.790;8.990;2023-07-02T20:38:52;36.33;;;13.27;;
68944;SDS011;55984;48.790;8.990;2023-07-02T20:41:19;34.07;;;12.83;;
68944;SDS011;55984;48.790;8.990;2023-07-02T20:43:46;36.70;;;13.90;;
68944;SDS011;55984;48.790;8.990;2023-07-02T20:46:15;29.27;;;12.17;;
68944;SDS011;55984;48.790;8.990;2023-07-02T20:48:41;33.20;;;12.47;;
68944;SDS011;55984;48.790;8.990;2023-07-02T20:51:09;30.53;;;12.90;;
68944;SDS011;55984;48.790;8.990;2023-07-02T20:53:36;29.77;;;13.03;;
68944;SDS011;55984;48.790;8.990;2023-07-02T20:56:07;30.53;;;12.50;;
68944;SDS011;55984;48.790;8.990;2023-07-02T20:58:37;33.60;;;13.80;;
68944;SDS011;55984;48.790;8.990;2023-07-02T21:01:10;32.43;;;13.03;;
68944;SDS011;55984;48.790;8.990;2023-07-02T21:03:39;29.07;;;13.20;;
68944;SDS011;55984;48.790;8.990;2023-07-02T21:06:11;33.93;;;13.20;;
68944;SDS011;55984;48.790;8.990;2023-07-02T21:08:41;32.50;;;13.80;;
68944;SDS011;55984;48.790;8.990;2023-07-02T21:11:10;33.60;;;12.70;;
68944;SDS011;55984;48.790;8.990;2023-07-02T21:13:40;35.80;;;13.63;;
68944;SDS011;55984;48.790;8.990;2023-07-02T21:16:08;36.07;;;13.87;;
68944;SDS011;55984;48.790;8.990;2023-07-02T21:18:37;28.13;;;12.33;;
68944;SDS011;55984;48.790;8.990;2023-07-02T21:21:07;32.10;;;12.87;;
68944;SDS011;55984;48.790;8.990;2023-07-02T21:23:34;30.73;;;13.20;;
68944;SDS011;55984;48.790;8.990;2023-07-02T21:26:02;39.30;;;14.60;;
68944;SDS011;55984;48.790;8.990;2023-07-02T21:28:29;33.97;;;13.57;;
68944;SDS011;55984;48.790;8.990;2023-07-02T21:30:57;29.67;;;12.53;;
68944;SDS011;55984;48.790;8.990;2023-07-02T21:33:24;35.23;;;12.80;;
68944;SDS011;55984;48.790;8.990;2023-07-02T21:35:53;31.53;;;13.50;;